Time;durP1;ratioP1;P1;durP2;ratioP2;P2;SDS_P1;SDS_P2;PMS_P1;PMS_P2;Temp;Humidity;BMP_temperature;BMP_pressure;BME280_temperature;BME280_humidity;BME280_pressure;Samples;Min_cycle;Max_cycle;Signal;HPM_P1;HPM_P2
2022/12/23 00:03:43;;;;;;;122.55;9.95;;;;;;;-3.50;100.00;101200.72;10629524;27;20077;-75
2022/12/23 00:08:44;;;;;;;138.55;9.32;;;;;;;-4.12;100.00;101107.81;10629855;27;20068;-74
2022/12/23 00:19:04;;;;;;;167.07;11.05;;;;;;;-3.81;100.00;101158.59;10628953;27;20046;-74
2022/12/23 00:24:05;;;;;;;71.13;9.68;;;;;;;-3.84;100.00;101158.72;10610563;27;20388;-74
2022/12/23 00:29:06;;;;;;;41.72;8.02;;;;;;;-4.04;100.00;101149.03;10609427;27;20035;-74
2022/12/23 00:34:09;;;;;;;53.55;8.98;;;;;;;-4.08;100.00;101157.84;10604546;27;20034;-74
2022/12/23 00:44:32;;;;;;;35.50;8.85;;;;;;;-4.36;100.00;101078.41;10607821;27;20050;-74
2022/12/23 00:49:41;;;;;;;39.90;9.43;;;;;;;-3.87;100.00;101159.66;10620325;27;20063;-74
2022/12/23 00:54:42;;;;;;;51.90;11.32;;;;;;;-4.29;100.00;101110.16;10584596;28;20040;-75
2022/12/23 00:59:43;;;;;;;70.30;9.23;;;;;;;-3.97;100.00;101156.56;10583902;28;20051;-74
2022/12/23 01:10:03;;;;;;;46.38;8.60;;;;;;;-4.53;100.00;101084.19;10625958;27;20417;-74
2022/12/23 01:15:05;;;;;;;39.17;8.23;;;;;;;-4.53;100.00;101062.59;10626454;27;20048;-74
2022/12/23 01:20:06;;;;;;;52.97;9.45;;;;;;;-4.37;100.00;101076.72;10626017;27;20046;-74
2022/12/23 01:25:08;;;;;;;77.93;9.48;;;;;;;-3.97;100.00;101130.63;10626346;27;20100;-74
2022/12/23 01:30:09;;;;;;;34.15;8.02;;;;;;;-3.93;100.00;101129.59;10625450;27;20040;-74
2022/12/23 01:35:10;;;;;;;60.58;7.32;;;;;;;-3.96;100.00;101134.91;10625304;27;20120;-75
2022/12/23 01:40:11;;;;;;;36.65;6.43;;;;;;;-4.34;100.00;101058.44;10625607;27;20039;-74
2022/12/23 01:45:17;;;;;;;50.78;7.20;;;;;;;-3.84;100.00;101150.94;10624895;27;20474;-74
2022/12/23 01:50:23;;;;;;;31.05;7.38;;;;;;;-3.77;100.00;101142.00;10625797;27;20055;-75
2022/12/23 01:55:28;;;;;;;32.17;5.63;;;;;;;-4.32;100.00;101043.69;10624331;27;20047;-74
2022/12/23 02:09:15;;;;;;;19.40;6.50;;;;;;;-3.65;100.00;101133.75;10568051;27;20092;-74
2022/12/23 02:11:39;;;;;;;21.88;6.25;;;;;;;-3.56;100.00;101132.56;10623694;27;20446;-74
2022/12/23 02:16:53;;;;;;;11.25;4.68;;;;;;;-3.57;100.00;101115.28;10623091;27;20039;-74
2022/12/23 02:22:00;;;;;;;;;;;;;;;-3.41;100.00;101119.00;10624581;27;20047;-75
2022/12/23 02:27:04;;;;;;;6.88;3.50;;;;;;;-3.93;100.00;101056.91;10622966;27;19915;-74
2022/12/23 02:32:04;;;;;;;9.48;2.40;;;;;;;-3.54;100.00;101118.59;10607083;27;20039;-75
2022/12/23 02:37:05;;;;;;;8.05;4.07;;;;;;;-3.58;100.00;101095.44;10580722;28;20042;-75
2022/12/23 02:42:16;;;;;;;21.80;4.00;;;;;;;-3.42;100.00;101119.03;10580069;28;20134;-75
2022/12/23 02:47:24;;;;;;;8.57;3.97;;;;;;;-3.55;100.00;101098.75;10580513;28;20055;-75
2022/12/23 02:52:30;;;;;;;17.23;3.80;;;;;;;-3.37;100.00;101114.53;10581318;28;20513;-75
2022/12/23 02:57:39;;;;;;;12.05;3.55;;;;;;;-3.34;100.00;101122.19;10579446;28;20044;-75
2022/12/23 03:02:41;;;;;;;7.05;3.35;;;;;;;-3.35;100.00;101116.16;10585799;27;20051;-74
2022/12/23 03:07:42;;;;;;;7.45;3.10;;;;;;;-3.85;100.00;101027.25;10583053;27;20126;-75
2022/12/23 03:12:49;;;;;;;8.55;3.15;;;;;;;-3.22;100.00;101135.53;10592287;27;20040;-74
2022/12/23 03:18:08;;;;;;;12.15;2.75;;;;;;;-3.19;100.00;101131.97;10569148;28;20528;-74
2022/12/23 03:23:19;;;;;;;8.63;3.08;;;;;;;-3.24;100.00;101098.38;10568329;28;20036;-74
2022/12/23 03:28:28;;;;;;;5.78;2.47;;;;;;;-3.04;100.00;101120.13;10569703;28;20043;-73
2022/12/23 03:33:38;;;;;;;10.55;2.22;;;;;;;-3.07;100.00;101099.47;10536533;28;20101;-71
2022/12/23 03:38:43;;;;;;;5.38;1.88;;;;;;;-3.02;100.00;101111.38;10581260;28;20047;-71
2022/12/23 03:43:49;;;;;;;4.43;1.90;;;;;;;-2.99;100.00;101113.00;10579930;28;20387;-73
2022/12/23 03:48:55;;;;;;;5.32;2.38;;;;;;;-2.97;100.00;101105.97;10574557;28;20150;-74
2022/12/23 03:54:07;;;;;;;4.32;2.03;;;;;;;-2.93;100.00;101109.28;10620811;28;20508;-72
2022/12/23 03:59:18;;;;;;;4.18;1.80;;;;;;;-2.85;100.00;101102.84;10621007;28;20032;-71
2022/12/23 04:04:28;;;;;;;3.70;1.50;;;;;;;-2.89;100.00;101096.09;10620542;28;20428;-71
2022/12/23 04:09:29;;;;;;;3.10;1.45;;;;;;;-3.23;100.00;101036.84;10622807;27;20406;-71
2022/12/23 04:14:34;;;;;;;5.75;2.67;;;;;;;-2.75;100.00;101103.34;10610742;27;20043;-72
2022/12/23 04:19:35;;;;;;;3.60;1.88;;;;;;;-2.66;100.00;101115.09;10628041;27;20073;-71
2022/12/23 04:24:35;;;;;;;2.90;1.52;;;;;;;-2.56;100.00;101114.63;10628825;27;20092;-69
2022/12/23 04:29:37;;;;;;;3.80;1.40;;;;;;;-2.53;100.00;101114.50;10609944;27;20092;-71
2022/12/23 04:34:38;;;;;;;2.35;1.20;;;;;;;-2.60;100.00;101107.06;10614273;27;20032;-72
2022/12/23 04:39:38;;;;;;;3.38;1.20;;;;;;;-2.52;100.00;101126.59;10577669;27;20043;-72
2022/12/23 04:44:39;;;;;;;2.22;0.98;;;;;;;-2.61;100.00;101087.97;10627666;27;20039;-73
2022/12/23 04:49:40;;;;;;;5.70;1.38;;;;;;;-2.42;100.00;101108.00;10627101;27;20051;-73
2022/12/23 04:54:41;;;;;;;3.50;1.10;;;;;;;-2.36;100.00;101118.16;10626871;27;20454;-72
2022/12/23 04:59:42;;;;;;;2.80;0.88;;;;;;;-2.32;100.00;101111.91;10626135;27;20066;-73
2022/12/23 05:04:42;;;;;;;2.60;1.30;;;;;;;-2.21;100.00;101116.66;10626974;27;20039;-72
2022/12/23 05:09:43;;;;;;;2.75;1.13;;;;;;;-2.64;100.00;101036.09;10626772;27;20069;-72
2022/12/23 05:14:44;;;;;;;3.22;0.90;;;;;;;-2.61;100.00;101045.50;10626828;27;20035;-73
2022/12/23 05:19:44;;;;;;;2.72;1.20;;;;;;;-2.60;100.00;101048.06;10626392;27;20031;-72
2022/12/23 05:24:46;;;;;;;2.67;1.10;;;;;;;-2.09;100.00;101123.91;10607089;27;20513;-72
2022/12/23 05:29:46;;;;;;;2.65;1.05;;;;;;;-2.01;100.00;101147.00;10626698;27;20074;-72
2022/12/23 05:34:47;;;;;;;1.80;0.88;;;;;;;-1.95;100.00;101144.13;10625349;27;20067;-73
2022/12/23 05:39:48;;;;;;;2.28;1.08;;;;;;;-1.99;100.00;101143.41;10599700;27;20065;-73
2022/12/23 05:44:48;;;;;;;3.38;1.20;;;;;;;-1.91;100.00;101141.31;10582469;28;20040;-73
2022/12/23 05:49:49;;;;;;;2.47;1.08;;;;;;;-2.20;100.00;101068.88;10583279;28;20161;-73
2022/12/23 05:54:50;;;;;;;4.05;2.08;;;;;;;-2.17;100.00;101050.50;10582639;28;20035;-73
2022/12/23 05:59:51;;;;;;;5.15;1.38;;;;;;;-1.76;100.00;101118.94;10582740;28;20024;-73
2022/12/23 06:04:51;;;;;;;1.70;0.90;;;;;;;-1.80;100.00;101119.13;10582174;28;20125;-73
2022/12/23 06:09:52;;;;;;;2.28;0.80;;;;;;;-1.69;100.00;101119.50;10581621;28;20057;-73
2022/12/23 06:14:53;;;;;;;2.65;1.08;;;;;;;-2.10;100.00;101037.13;10581402;28;20536;-73
2022/12/23 06:19:53;;;;;;;1.63;0.77;;;;;;;-1.40;100.00;101121.59;10581506;28;20032;-73
2022/12/23 06:24:54;;;;;;;2.15;0.90;;;;;;;-1.38;100.00;101104.13;10581384;28;20135;-73
2022/12/23 06:29:55;;;;;;;2.63;1.10;;;;;;;-1.69;100.00;101012.69;10580839;28;20379;-73
2022/12/23 06:34:56;;;;;;;2.60;1.30;;;;;;;-1.01;100.00;101097.13;10580629;28;20031;-73
2022/12/23 06:39:56;;;;;;;5.55;2.03;;;;;;;-0.80;100.00;101097.84;10581011;28;20024;-73
2022/12/23 06:44:57;;;;;;;5.70;1.42;;;;;;;-1.00;100.00;101046.66;10562662;28;20083;-73
2022/12/23 06:49:58;;;;;;;3.38;1.25;;;;;;;-0.53;99.48;101105.19;10580983;28;20043;-73
2022/12/23 06:54:59;;;;;;;5.22;2.25;;;;;;;-0.57;99.83;101091.47;10580336;28;20577;-73
2022/12/23 06:59:59;;;;;;;4.63;2.50;;;;;;;-0.65;99.41;101096.22;10580440;28;20039;-73
2022/12/23 07:05:00;;;;;;;4.78;1.92;;;;;;;-0.70;98.73;101100.81;10580772;28;20115;-73
2022/12/23 07:10:01;;;;;;;5.45;2.22;;;;;;;-1.17;98.24;101028.38;10580119;28;20042;-73
2022/12/23 07:15:02;;;;;;;5.30;2.65;;;;;;;-0.88;98.45;101073.06;10580094;28;20036;-73
2022/12/23 07:20:03;;;;;;;3.78;2.33;;;;;;;-1.25;98.10;101009.72;10579907;28;20043;-73
2022/12/23 07:25:04;;;;;;;5.18;2.50;;;;;;;-1.17;97.81;101028.38;10580144;28;20089;-73
2022/12/23 07:30:06;;;;;;;6.35;2.85;;;;;;;-0.63;98.50;101096.13;10580351;28;20032;-73
2022/12/23 07:35:07;;;;;;;5.47;3.15;;;;;;;-0.98;98.43;101004.88;10578559;28;20036;-73
2022/12/23 07:40:09;;;;;;;6.45;3.00;;;;;;;-0.89;98.08;101011.38;10561408;28;20412;-73
2022/12/23 07:45:10;;;;;;;5.63;2.88;;;;;;;-0.55;98.08;101086.16;10582629;28;20073;-73
2022/12/23 07:50:11;;;;;;;7.45;3.10;;;;;;;-1.40;97.80;100913.09;10588122;28;20043;-73
2022/12/23 07:55:12;;;;;;;5.35;2.85;;;;;;;-0.88;98.55;100990.41;10587602;28;20031;-73
2022/12/23 08:00:13;;;;;;;6.00;3.03;;;;;;;-0.80;98.44;100985.66;10587341;28;20085;-73
2022/12/23 08:05:15;;;;;;;12.48;4.43;;;;;;;-0.26;98.92;101053.31;10587260;28;20114;-73
2022/12/23 08:10:15;;;;;;;9.05;3.03;;;;;;;-0.16;98.70;101043.22;10586689;28;20077;-73
2022/12/23 08:15:16;;;;;;;8.32;4.13;;;;;;;-0.04;98.82;101032.94;10586201;28;20038;-73
2022/12/23 08:20:17;;;;;;;15.93;4.93;;;;;;;0.03;98.60;101027.38;10586068;28;20054;-73
2022/12/23 08:25:18;;;;;;;6.43;4.15;;;;;;;-0.13;98.40;101003.88;10585773;28;20585;-73
2022/12/23 08:30:19;;;;;;;7.80;4.00;;;;;;;0.10;99.28;101013.91;10587062;28;20039;-73
2022/12/23 08:35:20;;;;;;;16.77;3.42;;;;;;;-0.57;99.07;100856.59;10586044;28;20459;-74
2022/12/23 08:40:21;;;;;;;52.00;5.07;;;;;;;0.00;98.82;100926.56;10585238;28;20039;-73
2022/12/23 08:45:22;;;;;;;47.78;4.57;;;;;;;0.39;98.44;100960.03;10585003;28;20409;-73
2022/12/23 08:50:22;;;;;;;21.63;4.85;;;;;;;0.68;98.75;100973.19;10586017;28;20463;-72
2022/12/23 08:55:23;;;;;;;38.72;5.68;;;;;;;0.74;98.47;100974.59;10583971;28;20549;-72
2022/12/23 09:00:24;;;;;;;27.33;4.90;;;;;;;0.59;98.93;100945.78;10585138;28;20035;-72
2022/12/23 09:05:25;;;;;;;31.80;6.55;;;;;;;0.64;98.56;100967.28;10584786;28;20031;-73
2022/12/23 09:10:26;;;;;;;9.73;5.22;;;;;;;0.55;99.41;100967.84;10585024;28;20027;-73
2022/12/23 09:15:26;;;;;;;12.10;5.97;;;;;;;0.33;98.82;100952.53;10584472;28;20367;-73
2022/12/23 09:20:27;;;;;;;13.73;5.28;;;;;;;-0.21;99.95;100871.13;10566056;28;20034;-73
2022/12/23 09:25:28;;;;;;;17.70;5.45;;;;;;;0.48;100.00;100957.81;10583402;28;20043;-73
2022/12/23 09:30:29;;;;;;;26.35;5.50;;;;;;;0.35;100.00;100913.25;10584000;28;20203;-73
2022/12/23 09:35:30;;;;;;;22.52;6.10;;;;;;;0.59;99.77;100937.94;10565761;28;20425;-73
2022/12/23 09:40:33;;;;;;;12.43;5.18;;;;;;;0.67;100.00;100934.91;10583395;28;20473;-73
2022/12/23 09:45:57;;;;;;;17.07;7.10;;;;;;;0.78;100.00;100922.03;10582435;28;20063;-73
2022/12/23 09:50:58;;;;;;;;;;;;;;;0.95;100.00;100909.72;10522374;28;20476;-73
2022/12/23 09:56:07;;;;;;;15.48;6.43;;;;;;;0.78;99.92;100910.72;10540029;28;19962;-73
2022/12/23 10:01:23;;;;;;;12.93;5.88;;;;;;;0.77;99.90;100907.25;10540215;28;20380;-73
2022/12/23 10:06:29;;;;;;;20.05;6.88;;;;;;;0.32;99.56;100827.19;10539324;28;20036;-73
2022/12/23 10:11:43;;;;;;;15.02;5.82;;;;;;;0.82;100.00;100901.78;10521887;28;20034;-73
2022/12/23 10:16:49;;;;;;;31.35;7.15;;;;;;;0.71;100.00;100885.88;10539542;28;20032;-73
2022/12/23 10:22:22;;;;;;;15.20;6.60;;;;;;;0.81;100.00;100880.00;10539917;28;20047;-74
2022/12/23 10:27:41;;;;;;;11.70;5.17;;;;;;;1.03;100.00;100891.78;10539983;28;20035;-73
2022/12/23 10:32:59;;;;;;;31.58;6.38;;;;;;;1.15;100.00;100898.88;10538529;28;20047;-73
2022/12/23 10:38:16;;;;;;;15.40;8.32;;;;;;;0.55;100.00;100810.13;10539082;28;20031;-73
2022/12/23 10:43:44;;;;;;;28.88;14.48;;;;;;;1.12;100.00;100899.09;10539839;28;20142;-73
2022/12/23 10:48:52;;;;;;;26.92;14.50;;;;;;;0.85;100.00;100859.75;10535065;28;20408;-73
2022/12/23 10:53:59;;;;;;;21.02;13.88;;;;;;;0.45;100.00;100820.31;10534923;28;20119;-73
2022/12/23 10:59:00;;;;;;;30.08;12.70;;;;;;;0.79;100.00;100902.78;10535320;28;20051;-73
2022/12/23 11:04:26;;;;;;;26.30;12.35;;;;;;;0.84;100.00;100897.31;10538210;28;20035;-73
2022/12/23 11:09:36;;;;;;;15.98;8.48;;;;;;;0.76;100.00;100902.97;10537203;28;20059;-73
2022/12/23 11:14:49;;;;;;;21.50;6.78;;;;;;;0.72;100.00;100888.41;10537996;28;20074;-74
2022/12/23 11:20:05;;;;;;;21.60;5.68;;;;;;;0.16;100.00;100828.09;10536729;28;20048;-73
2022/12/23 11:25:29;;;;;;;11.05;6.68;;;;;;;0.65;100.00;100897.53;10519295;28;20154;-73
2022/12/23 11:30:34;;;;;;;29.75;6.25;;;;;;;0.56;100.00;100895.47;10537591;28;20044;-73
2022/12/23 11:35:36;;;;;;;13.07;5.82;;;;;;;0.54;100.00;100913.00;10537791;28;20044;-73
2022/12/23 11:40:37;;;;;;;22.75;14.98;;;;;;;0.41;100.00;100879.75;10537204;28;20040;-73
2022/12/23 11:45:38;;;;;;;47.45;14.80;;;;;;;0.61;100.00;100898.66;10536562;28;20130;-74
2022/12/23 11:50:39;;;;;;;13.27;7.18;;;;;;;-0.14;100.00;100785.47;10520182;28;20590;-75
2022/12/23 11:56:06;;;;;;;21.02;5.80;;;;;;;0.70;100.00;100907.75;10570576;28;20072;-75
2022/12/23 12:01:16;;;;;;;12.60;5.80;;;;;;;0.52;100.00;100893.97;10513648;28;20158;-76
2022/12/23 12:06:18;;;;;;;20.77;6.75;;;;;;;0.61;100.00;100906.50;10512502;28;20049;-76
2022/12/23 12:11:47;;;;;;;14.68;5.63;;;;;;;0.60;100.00;100908.28;10495419;28;20116;-77
2022/12/23 12:17:12;;;;;;;17.23;5.82;;;;;;;0.17;100.00;100844.59;10574316;28;20047;-74
2022/12/23 12:22:42;;;;;;;8.65;5.00;;;;;;;0.40;100.00;100895.53;10488869;28;20604;-76
2022/12/23 12:27:48;;;;;;;16.25;5.10;;;;;;;0.37;100.00;100907.00;10529349;28;20051;-74
2022/12/23 12:32:59;;;;;;;15.10;5.82;;;;;;;0.47;100.00;100893.41;10537058;28;20044;-75
2022/12/23 12:38:24;;;;;;;28.55;5.65;;;;;;;0.44;100.00;100900.47;10543299;28;20503;-74
2022/12/23 12:43:36;;;;;;;10.50;5.45;;;;;;;0.39;100.00;100906.91;10543806;28;20044;-73
2022/12/23 12:49:02;;;;;;;8.45;4.70;;;;;;;0.48;100.00;100903.78;10524299;28;20118;-73
2022/12/23 12:54:18;;;;;;;12.57;6.10;;;;;;;0.48;100.00;100906.38;10539932;28;20040;-72
2022/12/23 12:59:23;;;;;;;13.15;5.20;;;;;;;0.43;100.00;100908.41;10566695;27;20065;-71
2022/12/23 13:04:42;;;;;;;9.20;4.75;;;;;;;-0.02;100.00;100821.31;10559326;27;20093;-72
2022/12/23 13:09:59;;;;;;;7.35;4.28;;;;;;;0.42;100.00;100907.59;10576920;27;20051;-72
2022/12/23 13:15:59;;;;;;;10.82;6.78;;;;;;;0.41;100.00;100899.81;10576642;27;20075;-71
2022/12/23 13:21:15;;;;;;;10.25;5.65;;;;;;;0.32;100.00;100903.81;10466023;27;20418;-71
2022/12/23 13:26:42;;;;;;;11.73;7.28;;;;;;;0.35;100.00;100914.06;10562318;28;20427;-72
2022/12/23 13:31:57;;;;;;;18.90;8.30;;;;;;;0.22;100.00;100889.59;10582686;27;20047;-71
2022/12/23 13:37:12;;;;;;;20.85;9.18;;;;;;;0.16;100.00;100882.13;10582478;28;20115;-71
2022/12/23 13:42:37;;;;;;;20.30;14.60;;;;;;;0.25;100.00;100899.03;10564172;28;20039;-71
2022/12/23 13:48:08;;;;;;;15.95;7.85;;;;;;;0.28;100.00;100910.16;10582251;28;20059;-72
2022/12/23 13:53:48;;;;;;;16.60;4.93;;;;;;;0.27;100.00;100900.63;10597520;27;20050;-71
2022/12/23 13:58:50;;;;;;;23.08;4.40;;;;;;;0.21;100.00;100891.38;10609643;27;20051;-72
2022/12/23 14:03:51;;;;;;;16.67;5.85;;;;;;;0.15;100.00;100876.06;10616527;27;20074;-72
2022/12/23 14:08:54;;;;;;;14.05;5.50;;;;;;;0.16;100.00;100888.19;10561365;28;20415;-72
2022/12/23 14:14:02;;;;;;;9.27;5.47;;;;;;;0.23;100.00;100896.50;10580468;28;20043;-72
2022/12/23 14:19:15;;;;;;;12.65;5.05;;;;;;;0.27;100.00;100894.53;10576893;28;20152;-71
2022/12/23 14:24:25;;;;;;;16.02;5.38;;;;;;;-0.17;100.00;100816.97;10582382;27;20502;-72
2022/12/23 14:29:34;;;;;;;32.88;6.03;;;;;;;0.29;100.00;100892.69;10586061;27;20048;-71
2022/12/23 14:34:35;;;;;;;15.93;6.03;;;;;;;0.30;100.00;100902.22;10614519;27;20125;-71
2022/12/23 14:39:35;;;;;;;18.45;7.55;;;;;;;0.32;100.00;100889.91;10623206;27;20130;-71
2022/12/23 14:44:36;;;;;;;35.28;15.98;;;;;;;0.37;100.00;100885.25;10623223;27;20070;-71
2022/12/23 14:49:41;;;;;;;35.88;8.48;;;;;;;-0.17;100.00;100816.97;10619116;27;20051;-70
2022/12/23 14:54:42;;;;;;;19.05;7.25;;;;;;;0.28;100.00;100910.16;10587171;27;20044;-71
2022/12/23 14:59:51;;;;;;;24.98;8.02;;;;;;;-0.10;100.00;100836.59;10623195;27;20060;-71
2022/12/23 15:04:56;;;;;;;28.80;13.25;;;;;;;0.24;100.00;100885.13;10590380;27;20398;-70
2022/12/23 15:09:58;;;;;;;55.78;28.15;;;;;;;0.35;100.00;100908.84;10580514;28;20044;-70
2022/12/23 15:15:03;;;;;;;113.50;48.45;;;;;;;0.28;100.00;100904.91;10579280;28;20036;-70
2022/12/23 15:20:14;;;;;;;30.77;10.68;;;;;;;-0.75;100.00;100724.53;10577663;28;20537;-71
2022/12/23 15:25:25;;;;;;;25.85;8.60;;;;;;;-0.56;100.00;100753.91;10568126;28;20503;-70
2022/12/23 15:30:29;;;;;;;28.58;11.77;;;;;;;-0.11;100.00;100827.06;10583966;28;20044;-70
2022/12/23 15:35:33;;;;;;;34.65;7.65;;;;;;;-0.04;100.00;100831.84;10614461;28;20491;-71
2022/12/23 15:40:35;;;;;;;;;;;;;;;0.53;100.00;100906.09;10577128;28;20491;-70
2022/12/23 15:45:38;;;;;;;20.40;6.13;;;;;;;0.37;100.00;100887.88;10576863;28;20438;-70
2022/12/23 15:50:40;;;;;;;34.05;7.13;;;;;;;0.40;100.00;100882.47;10579413;28;20059;-70
2022/12/23 15:55:41;;;;;;;29.02;6.45;;;;;;;0.44;100.00;100871.72;10578048;28;20118;-70
2022/12/23 16:00:53;;;;;;;13.07;5.65;;;;;;;0.11;100.00;100804.00;10577610;28;20479;-71
2022/12/23 16:05:54;;;;;;;28.45;7.65;;;;;;;0.08;100.00;100800.72;10578410;27;20038;-70
2022/12/23 16:11:18;;;;;;;19.75;5.15;;;;;;;0.61;100.00;100869.91;10577124;28;20039;-72
2022/12/23 16:16:40;;;;;;;15.07;5.55;;;;;;;0.58;100.00;100862.25;10582462;27;20051;-71
2022/12/23 16:21:40;;;;;;;70.53;7.60;;;;;;;0.52;100.00;100867.84;10571991;27;20032;-70
2022/12/23 16:26:42;;;;;;;46.97;7.32;;;;;;;0.48;100.00;100866.31;10551032;27;20491;-71
2022/12/23 16:31:42;;;;;;;47.65;8.60;;;;;;;0.47;100.00;100841.94;10575300;28;20104;-71
2022/12/23 16:36:43;;;;;;;65.38;9.00;;;;;;;0.45;100.00;100847.28;10576597;27;20035;-71
2022/12/23 16:41:44;;;;;;;59.80;8.88;;;;;;;0.06;100.00;100776.44;10575053;28;20038;-71
2022/12/23 16:46:48;;;;;;;17.38;6.75;;;;;;;0.32;100.00;100809.72;10581797;27;20415;-71
2022/12/23 16:51:49;;;;;;;26.67;7.90;;;;;;;0.34;100.00;100813.09;10578819;27;20044;-71
2022/12/23 16:56:49;;;;;;;28.95;8.15;;;;;;;0.59;100.00;100837.78;10564641;28;20093;-71
2022/12/23 17:01:51;;;;;;;11.00;6.35;;;;;;;0.64;100.00;100835.72;10567974;27;20031;-71
2022/12/23 17:06:52;;;;;;;32.85;8.23;;;;;;;0.61;100.00;100836.75;10546620;28;20418;-72
2022/12/23 17:11:53;;;;;;;15.68;7.25;;;;;;;0.54;100.00;100829.34;10569517;27;20046;-72
2022/12/23 17:16:54;;;;;;;39.78;7.75;;;;;;;0.54;100.00;100818.91;10584316;27;20039;-71
2022/12/23 17:22:00;;;;;;;28.85;8.27;;;;;;;0.58;100.00;100818.63;10584231;28;20040;-72
2022/12/23 17:27:01;;;;;;;28.00;8.60;;;;;;;0.70;100.00;100827.50;10582072;28;20057;-72
2022/12/23 17:32:01;;;;;;;24.50;7.47;;;;;;;0.73;100.00;100829.94;10581338;28;20131;-72
2022/12/23 17:37:15;;;;;;;33.42;7.80;;;;;;;0.63;100.00;100819.22;10572613;28;20473;-71
2022/12/23 17:42:19;;;;;;;32.87;7.00;;;;;;;0.55;100.00;100805.75;10578824;28;20129;-71
2022/12/23 17:47:21;;;;;;;23.45;6.38;;;;;;;0.65;100.00;100832.16;10560939;28;20309;-71
2022/12/23 17:52:23;;;;;;;20.00;8.63;;;;;;;0.53;100.00;100823.28;10586351;27;20031;-73
2022/12/23 17:57:26;;;;;;;19.75;8.57;;;;;;;0.47;100.00;100828.06;10618963;27;20086;-71
2022/12/23 18:02:31;;;;;;;22.83;7.85;;;;;;;0.43;100.00;100819.56;10584677;27;20035;-70
2022/12/23 18:07:32;;;;;;;28.83;9.25;;;;;;;0.25;100.00;100794.53;10593499;27;20057;-71
2022/12/23 18:12:36;;;;;;;23.63;8.00;;;;;;;0.35;100.00;100808.72;10624059;27;20031;-71
2022/12/23 18:17:37;;;;;;;26.73;9.27;;;;;;;0.16;100.00;100769.78;10624410;27;20039;-72
2022/12/23 18:22:37;;;;;;;28.85;8.10;;;;;;;0.21;100.00;100801.69;10618694;27;20077;-71
2022/12/23 18:27:38;;;;;;;23.77;9.60;;;;;;;-0.02;100.00;100769.91;10581164;28;20044;-71
2022/12/23 18:32:40;;;;;;;40.78;8.50;;;;;;;0.10;100.00;100788.41;10580504;28;20572;-71
2022/12/23 18:37:41;;;;;;;46.28;8.90;;;;;;;-0.53;100.00;100678.03;10580838;28;20083;-70
2022/12/23 18:42:42;;;;;;;17.88;8.10;;;;;;;-0.41;100.00;100686.94;10580844;28;20062;-69
2022/12/23 18:47:43;;;;;;;40.95;8.77;;;;;;;0.14;100.00;100790.75;10579782;28;20070;-70
2022/12/23 18:52:45;;;;;;;48.88;8.73;;;;;;;-0.53;100.00;100670.22;10562328;28;20127;-69
2022/12/23 18:57:47;;;;;;;24.17;7.95;;;;;;;0.11;100.00;100780.47;10580628;28;20042;-70
2022/12/23 19:02:49;;;;;;;31.70;7.68;;;;;;;-0.39;100.00;100686.81;10580616;28;20418;-69
2022/12/23 19:07:53;;;;;;;24.42;8.23;;;;;;;0.15;100.00;100770.69;10579516;28;20086;-70
2022/12/23 19:12:54;;;;;;;;;;;;;;;0.28;100.00;100776.88;10579464;28;20071;-70
2022/12/23 19:17:55;;;;;;;17.33;7.72;;;;;;;0.16;100.00;100786.28;10579951;28;20375;-70
2022/12/23 19:22:56;;;;;;;54.25;8.55;;;;;;;0.08;100.00;100772.00;10561720;28;20042;-71
2022/12/23 19:27:56;;;;;;;35.08;8.88;;;;;;;0.08;100.00;100779.81;10579706;28;20043;-71
2022/12/23 19:32:57;;;;;;;54.78;8.07;;;;;;;0.05;100.00;100759.09;10580033;28;20040;-71
2022/12/23 19:37:58;;;;;;;52.38;8.82;;;;;;;0.09;100.00;100768.44;10579151;28;20077;-69
2022/12/23 19:42:59;;;;;;;24.13;8.43;;;;;;;0.12;100.00;100770.88;10585598;28;20036;-71
2022/12/23 19:47:59;;;;;;;46.47;9.18;;;;;;;0.17;100.00;100768.84;10588128;28;20052;-69
2022/12/23 19:53:00;;;;;;;30.83;7.60;;;;;;;-0.03;100.00;100770.84;10569499;28;20097;-69
2022/12/23 19:58:01;;;;;;;65.93;7.88;;;;;;;0.11;100.00;100774.41;10569465;28;20036;-69
2022/12/23 20:03:02;;;;;;;40.40;8.77;;;;;;;-0.38;100.00;100688.53;10586485;28;20071;-69
2022/12/23 20:08:02;;;;;;;28.30;7.75;;;;;;;0.05;100.00;100754.72;10588075;28;20054;-69
2022/12/23 20:13:03;;;;;;;36.38;8.40;;;;;;;0.16;100.00;100767.16;10587125;28;20027;-70
2022/12/23 20:18:04;;;;;;;48.00;8.63;;;;;;;0.01;100.00;100736.72;10586099;28;20046;-69
2022/12/23 20:23:05;;;;;;;66.18;10.23;;;;;;;0.10;100.00;100744.84;10568161;28;20130;-69
2022/12/23 20:28:06;;;;;;;100.15;9.32;;;;;;;-0.01;100.00;100734.19;10568151;28;20042;-70
2022/12/23 20:33:08;;;;;;;24.48;9.35;;;;;;;0.05;100.00;100746.03;10585822;28;20483;-71
2022/12/23 20:38:09;;;;;;;79.70;9.88;;;;;;;0.12;100.00;100761.28;10586450;28;20084;-71
2022/12/23 20:43:09;;;;;;;27.33;8.50;;;;;;;-0.09;100.00;100723.34;10585165;28;20126;-71
2022/12/23 20:48:10;;;;;;;68.43;10.35;;;;;;;0.08;100.00;100756.31;10585975;28;20051;-71
2022/12/23 20:53:11;;;;;;;61.42;8.75;;;;;;;0.01;100.00;100747.16;10585843;28;20096;-71
2022/12/23 21:03:31;;;;;;;106.53;9.80;;;;;;;-0.53;100.00;100666.75;10584319;28;20036;-71
2022/12/23 21:08:32;;;;;;;23.85;7.55;;;;;;;-0.14;100.00;100739.31;10584204;28;20049;-71
2022/12/23 21:13:35;;;;;;;36.15;8.27;;;;;;;-0.12;100.00;100729.63;10583976;28;20035;-71
2022/12/23 21:18:44;;;;;;;74.90;9.18;;;;;;;-0.24;100.00;100675.47;10563366;28;20135;-71
2022/12/23 21:23:45;;;;;;;26.98;8.75;;;;;;;-0.03;100.00;100722.97;10583448;28;20065;-71
2022/12/23 21:28:47;;;;;;;24.20;8.43;;;;;;;-0.09;100.00;100726.81;10583661;28;20043;-71
2022/12/23 21:33:49;;;;;;;44.90;9.88;;;;;;;-0.16;100.00;100720.25;10583233;28;20388;-71
2022/12/23 21:38:51;;;;;;;29.52;10.02;;;;;;;-0.13;100.00;100724.47;10583561;28;20092;-71
2022/12/23 21:43:52;;;;;;;55.40;10.88;;;;;;;-0.46;100.00;100665.47;10583356;28;20036;-71
2022/12/23 21:48:55;;;;;;;28.92;10.60;;;;;;;-0.64;100.00;100620.41;10564150;28;20100;-71
2022/12/23 21:53:57;;;;;;;82.07;10.73;;;;;;;-0.34;100.00;100680.41;10582305;28;20043;-71
2022/12/23 21:59:00;;;;;;;47.20;10.15;;;;;;;-0.26;100.00;100711.31;10582259;28;20092;-71
2022/12/23 22:04:02;;;;;;;27.50;10.70;;;;;;;-0.18;100.00;100721.28;10581891;28;20051;-71
2022/12/23 22:09:05;;;;;;;29.15;10.25;;;;;;;-0.48;100.00;100667.31;10582794;28;20039;-71
2022/12/23 22:14:07;;;;;;;26.42;10.68;;;;;;;-0.32;100.00;100696.00;10581511;28;20407;-71
2022/12/23 22:19:10;;;;;;;22.95;8.98;;;;;;;-0.21;100.00;100701.41;10581343;28;20114;-71
2022/12/23 22:24:11;;;;;;;20.73;8.82;;;;;;;-0.25;100.00;100694.69;10580954;28;20070;-71
2022/12/23 22:29:11;;;;;;;22.02;9.10;;;;;;;-0.28;100.00;100697.47;10581738;28;20040;-71
2022/12/23 22:34:18;;;;;;;22.75;9.63;;;;;;;-0.31;100.00;100715.94;10580524;28;20048;-71
2022/12/23 22:39:19;;;;;;;19.05;8.65;;;;;;;-0.96;100.00;100599.66;10581691;28;20096;-71
2022/12/23 22:44:20;;;;;;;22.55;9.40;;;;;;;-0.53;100.00;100675.44;10580172;28;20510;-71
2022/12/23 22:49:21;;;;;;;17.65;8.63;;;;;;;-0.47;100.00;100675.06;10580590;28;20051;-71
2022/12/23 22:54:22;;;;;;;21.10;9.38;;;;;;;-0.34;100.00;100679.56;10563059;28;20047;-71
2022/12/23 22:59:24;;;;;;;16.05;8.05;;;;;;;-1.17;100.00;100540.91;10580884;28;20138;-71
2022/12/23 23:04:24;;;;;;;15.77;7.35;;;;;;;-0.21;100.00;100706.63;10580624;28;20049;-71
2022/12/23 23:09:25;;;;;;;16.42;8.77;;;;;;;-0.51;100.00;100630.97;10580028;28;20555;-71
2022/12/23 23:14:26;;;;;;;16.88;8.80;;;;;;;-0.08;100.00;100702.38;10578796;28;20084;-71
2022/12/23 23:19:27;;;;;;;18.35;9.68;;;;;;;-1.05;100.00;100529.75;10580970;28;20046;-71
2022/12/23 23:24:27;;;;;;;17.38;7.57;;;;;;;-0.15;100.00;100695.84;10579522;28;20044;-71
2022/12/23 23:29:28;;;;;;;18.00;8.65;;;;;;;-0.46;100.00;100642.81;10579154;28;20077;-71
2022/12/23 23:34:29;;;;;;;16.65;8.73;;;;;;;-0.60;100.00;100605.41;10578857;28;20035;-71